sensor_id;sensor_type;location;lat;lon;timestamp;temperature;humidity
36292;DHT22;22327;51.208;6.418;2022-07-17T00:00:13;18.50;64.50
36292;DHT22;22327;51.208;6.418;2022-07-17T00:02:39;18.40;64.70
36292;DHT22;22327;51.208;6.418;2022-07-17T00:05:06;18.40;65.00
36292;DHT22;22327;51.208;6.418;2022-07-17T00:07:32;18.30;65.40
36292;DHT22;22327;51.208;6.418;2022-07-17T00:09:57;18.30;65.30
36292;DHT22;22327;51.208;6.418;2022-07-17T00:12:23;18.30;65.60
36292;DHT22;22327;51.208;6.418;2022-07-17T00:14:48;18.20;65.60
36292;DHT22;22327;51.208;6.418;2022-07-17T00:17:14;18.20;66.00
36292;DHT22;22327;51.208;6.418;2022-07-17T00:19:40;18.20;66.10
36292;DHT22;22327;51.208;6.418;2022-07-17T00:22:06;18.20;66.20
36292;DHT22;22327;51.208;6.418;2022-07-17T00:24:32;18.20;66.30
36292;DHT22;22327;51.208;6.418;2022-07-17T00:26:59;18.10;66.70
36292;DHT22;22327;51.208;6.418;2022-07-17T00:29:24;18.10;67.00
36292;DHT22;22327;51.208;6.418;2022-07-17T00:31:50;18.00;67.10
36292;DHT22;22327;51.208;6.418;2022-07-17T00:34:16;18.00;67.30
36292;DHT22;22327;51.208;6.418;2022-07-17T00:36:42;18.00;67.50
36292;DHT22;22327;51.208;6.418;2022-07-17T00:39:08;17.90;67.90
36292;DHT22;22327;51.208;6.418;2022-07-17T00:41:34;17.80;68.20
36292;DHT22;22327;51.208;6.418;2022-07-17T00:44:07;17.80;68.40
36292;DHT22;22327;51.208;6.418;2022-07-17T00:46:33;17.80;68.60
36292;DHT22;22327;51.208;6.418;2022-07-17T00:48:59;17.80;69.00
36292;DHT22;22327;51.208;6.418;2022-07-17T00:51:24;17.70;69.40
36292;DHT22;22327;51.208;6.418;2022-07-17T00:53:51;17.70;69.70
36292;DHT22;22327;51.208;6.418;2022-07-17T00:56:17;17.70;69.80
36292;DHT22;22327;51.208;6.418;2022-07-17T00:58:44;17.70;69.80
36292;DHT22;22327;51.208;6.418;2022-07-17T01:01:10;17.70;69.80
36292;DHT22;22327;51.208;6.418;2022-07-17T01:03:36;17.60;70.20
36292;DHT22;22327;51.208;6.418;2022-07-17T01:06:02;17.60;70.50
36292;DHT22;22327;51.208;6.418;2022-07-17T01:08:28;17.50;70.50
36292;DHT22;22327;51.208;6.418;2022-07-17T01:10:54;17.50;70.90
36292;DHT22;22327;51.208;6.418;2022-07-17T01:13:20;17.50;71.30
36292;DHT22;22327;51.208;6.418;2022-07-17T01:15:46;17.40;71.50
36292;DHT22;22327;51.208;6.418;2022-07-17T01:18:13;17.40;71.50
36292;DHT22;22327;51.208;6.418;2022-07-17T01:20:41;17.40;71.80
36292;DHT22;22327;51.208;6.418;2022-07-17T01:23:07;17.30;71.80
36292;DHT22;22327;51.208;6.418;2022-07-17T01:25:33;17.30;72.00
36292;DHT22;22327;51.208;6.418;2022-07-17T01:27:59;17.30;72.20
36292;DHT22;22327;51.208;6.418;2022-07-17T01:30:25;17.20;72.70
36292;DHT22;22327;51.208;6.418;2022-07-17T01:32:51;17.20;72.90
36292;DHT22;22327;51.208;6.418;2022-07-17T01:35:16;17.20;73.30
36292;DHT22;22327;51.208;6.418;2022-07-17T01:37:43;17.20;73.50
36292;DHT22;22327;51.208;6.418;2022-07-17T01:40:10;17.20;73.60
36292;DHT22;22327;51.208;6.418;2022-07-17T01:42:38;17.10;73.70
36292;DHT22;22327;51.208;6.418;2022-07-17T01:45:05;17.10;74.00
36292;DHT22;22327;51.208;6.418;2022-07-17T01:47:31;17.10;74.40
36292;DHT22;22327;51.208;6.418;2022-07-17T01:49:58;17.10;74.70
36292;DHT22;22327;51.208;6.418;2022-07-17T01:52:25;17.10;74.70
36292;DHT22;22327;51.208;6.418;2022-07-17T01:54:52;17.00;74.80
36292;DHT22;22327;51.208;6.418;2022-07-17T01:57:18;17.00;75.20
36292;DHT22;22327;51.208;6.418;2022-07-17T01:59:44;17.00;75.30
36292;DHT22;22327;51.208;6.418;2022-07-17T02:02:10;17.00;75.30
36292;DHT22;22327;51.208;6.418;2022-07-17T02:04:37;17.00;75.60
36292;DHT22;22327;51.208;6.418;2022-07-17T02:07:04;16.90;75.70
36292;DHT22;22327;51.208;6.418;2022-07-17T02:09:30;16.90;76.10
36292;DHT22;22327;51.208;6.418;2022-07-17T02:11:56;16.80;76.50
36292;DHT22;22327;51.208;6.418;2022-07-17T02:14:22;16.80;76.70
36292;DHT22;22327;51.208;6.418;2022-07-17T02:16:47;16.80;77.00
36292;DHT22;22327;51.208;6.418;2022-07-17T02:19:13;16.70;76.90
36292;DHT22;22327;51.208;6.418;2022-07-17T02:21:39;16.70;77.00
36292;DHT22;22327;51.208;6.418;2022-07-17T02:24:05;16.60;77.30
36292;DHT22;22327;51.208;6.418;2022-07-17T02:26:31;16.50;77.70
36292;DHT22;22327;51.208;6.418;2022-07-17T02:28:56;16.50;77.90
36292;DHT22;22327;51.208;6.418;2022-07-17T02:31:22;16.40;78.00
36292;DHT22;22327;51.208;6.418;2022-07-17T02:33:48;16.40;78.10
36292;DHT22;22327;51.208;6.418;2022-07-17T02:36:13;16.30;78.30
36292;DHT22;22327;51.208;6.418;2022-07-17T02:38:39;16.30;78.50
36292;DHT22;22327;51.208;6.418;2022-07-17T02:41:05;16.20;78.80
36292;DHT22;22327;51.208;6.418;2022-07-17T02:43:30;16.10;79.00
36292;DHT22;22327;51.208;6.418;2022-07-17T02:45:56;16.10;79.40
36292;DHT22;22327;51.208;6.418;2022-07-17T02:48:21;16.00;79.70
36292;DHT22;22327;51.208;6.418;2022-07-17T02:50:47;16.00;80.30
36292;DHT22;22327;51.208;6.418;2022-07-17T02:53:12;16.00;81.70
36292;DHT22;22327;51.208;6.418;2022-07-17T02:55:38;15.90;80.90
36292;DHT22;22327;51.208;6.418;2022-07-17T02:58:03;15.90;81.40
36292;DHT22;22327;51.208;6.418;2022-07-17T03:00:29;15.80;81.40
36292;DHT22;22327;51.208;6.418;2022-07-17T03:02:56;15.80;81.40
36292;DHT22;22327;51.208;6.418;2022-07-17T03:05:22;15.80;81.90
36292;DHT22;22327;51.208;6.418;2022-07-17T03:07:47;15.80;82.30
36292;DHT22;22327;51.208;6.418;2022-07-17T03:10:13;15.80;82.60
36292;DHT22;22327;51.208;6.418;2022-07-17T03:12:40;15.80;83.00
36292;DHT22;22327;51.208;6.418;2022-07-17T03:15:07;15.70;83.10
36292;DHT22;22327;51.208;6.418;2022-07-17T03:17:33;15.70;83.50
36292;DHT22;22327;51.208;6.418;2022-07-17T03:19:59;15.70;83.50
36292;DHT22;22327;51.208;6.418;2022-07-17T03:22:24;15.70;84.00
36292;DHT22;22327;51.208;6.418;2022-07-17T03:24:50;15.70;83.70
36292;DHT22;22327;51.208;6.418;2022-07-17T03:27:15;15.80;84.10
36292;DHT22;22327;51.208;6.418;2022-07-17T03:29:41;15.80;84.50
36292;DHT22;22327;51.208;6.418;2022-07-17T03:32:06;15.80;84.60
36292;DHT22;22327;51.208;6.418;2022-07-17T03:34:32;15.80;84.70
36292;DHT22;22327;51.208;6.418;2022-07-17T03:36:58;15.80;84.70
36292;DHT22;22327;51.208;6.418;2022-07-17T03:39:23;15.80;84.60
36292;DHT22;22327;51.208;6.418;2022-07-17T03:41:49;15.80;84.70
36292;DHT22;22327;51.208;6.418;2022-07-17T03:44:15;15.80;84.60
36292;DHT22;22327;51.208;6.418;2022-07-17T03:46:40;15.80;84.60
36292;DHT22;22327;51.208;6.418;2022-07-17T03:49:06;15.80;84.80
36292;DHT22;22327;51.208;6.418;2022-07-17T03:51:32;15.90;85.10
36292;DHT22;22327;51.208;6.418;2022-07-17T03:53:57;15.90;85.00
36292;DHT22;22327;51.208;6.418;2022-07-17T03:56:23;16.00;85.00
36292;DHT22;22327;51.208;6.418;2022-07-17T03:58:49;15.90;85.00
36292;DHT22;22327;51.208;6.418;2022-07-17T04:01:14;16.00;85.40
36292;DHT22;22327;51.208;6.418;2022-07-17T04:03:40;16.00;85.50
36292;DHT22;22327;51.208;6.418;2022-07-17T04:06:06;16.00;85.30
36292;DHT22;22327;51.208;6.418;2022-07-17T04:08:31;16.10;85.10
36292;DHT22;22327;51.208;6.418;2022-07-17T04:10:57;16.10;85.40
36292;DHT22;22327;51.208;6.418;2022-07-17T04:13:23;16.20;85.70
36292;DHT22;22327;51.208;6.418;2022-07-17T04:15:49;16.40;86.20
36292;DHT22;22327;51.208;6.418;2022-07-17T04:18:22;16.70;86.10
36292;DHT22;22327;51.208;6.418;2022-07-17T04:20:48;17.10;85.00
36292;DHT22;22327;51.208;6.418;2022-07-17T04:23:14;17.50;84.20
36292;DHT22;22327;51.208;6.418;2022-07-17T04:25:41;17.80;83.00
36292;DHT22;22327;51.208;6.418;2022-07-17T04:28:06;18.30;81.60
36292;DHT22;22327;51.208;6.418;2022-07-17T04:30:33;18.70;80.00
36292;DHT22;22327;51.208;6.418;2022-07-17T04:32:58;19.10;77.50
36292;DHT22;22327;51.208;6.418;2022-07-17T04:35:24;19.30;76.80
36292;DHT22;22327;51.208;6.418;2022-07-17T04:37:50;19.70;76.40
36292;DHT22;22327;51.208;6.418;2022-07-17T04:40:15;20.10;74.60
36292;DHT22;22327;51.208;6.418;2022-07-17T04:42:41;20.30;72.40
36292;DHT22;22327;51.208;6.418;2022-07-17T04:45:07;20.50;72.10
36292;DHT22;22327;51.208;6.418;2022-07-17T04:47:34;20.80;71.20
36292;DHT22;22327;51.208;6.418;2022-07-17T04:49:59;21.10;70.10
36292;DHT22;22327;51.208;6.418;2022-07-17T04:52:25;21.60;68.30
36292;DHT22;22327;51.208;6.418;2022-07-17T04:54:51;22.10;66.00
36292;DHT22;22327;51.208;6.418;2022-07-17T04:57:16;22.60;63.70
36292;DHT22;22327;51.208;6.418;2022-07-17T04:59:42;23.00;63.50
36292;DHT22;22327;51.208;6.418;2022-07-17T05:02:07;23.50;61.70
36292;DHT22;22327;51.208;6.418;2022-07-17T05:04:33;23.90;59.10
36292;DHT22;22327;51.208;6.418;2022-07-17T05:06:59;24.30;57.80
36292;DHT22;22327;51.208;6.418;2022-07-17T05:09:24;24.70;56.20
36292;DHT22;22327;51.208;6.418;2022-07-17T05:11:50;25.00;53.80
36292;DHT22;22327;51.208;6.418;2022-07-17T05:14:16;25.10;53.90
36292;DHT22;22327;51.208;6.418;2022-07-17T05:16:42;25.50;53.70
36292;DHT22;22327;51.208;6.418;2022-07-17T05:19:07;25.70;52.00
36292;DHT22;22327;51.208;6.418;2022-07-17T05:21:33;25.80;50.10
36292;DHT22;22327;51.208;6.418;2022-07-17T05:23:58;26.20;49.70
36292;DHT22;22327;51.208;6.418;2022-07-17T05:26:24;26.40;48.70
36292;DHT22;22327;51.208;6.418;2022-07-17T05:28:50;26.70;48.50
36292;DHT22;22327;51.208;6.418;2022-07-17T05:31:16;26.90;46.90
36292;DHT22;22327;51.208;6.418;2022-07-17T05:33:41;27.10;46.50
36292;DHT22;22327;51.208;6.418;2022-07-17T05:36:07;27.10;46.10
36292;DHT22;22327;51.208;6.418;2022-07-17T05:38:33;27.20;46.30
36292;DHT22;22327;51.208;6.418;2022-07-17T05:40:59;27.20;45.60
36292;DHT22;22327;51.208;6.418;2022-07-17T05:43:24;27.40;45.50
36292;DHT22;22327;51.208;6.418;2022-07-17T05:45:53;27.60;44.70
36292;DHT22;22327;51.208;6.418;2022-07-17T05:48:19;28.00;43.30
36292;DHT22;22327;51.208;6.418;2022-07-17T05:50:44;28.20;43.40
36292;DHT22;22327;51.208;6.418;2022-07-17T05:53:10;28.40;42.30
36292;DHT22;22327;51.208;6.418;2022-07-17T05:55:36;28.40;42.10
36292;DHT22;22327;51.208;6.418;2022-07-17T05:58:02;28.40;42.10
36292;DHT22;22327;51.208;6.418;2022-07-17T06:00:27;28.60;41.90
36292;DHT22;22327;51.208;6.418;2022-07-17T06:02:53;28.80;42.20
36292;DHT22;22327;51.208;6.418;2022-07-17T06:05:19;29.30;41.50
36292;DHT22;22327;51.208;6.418;2022-07-17T06:07:44;29.80;39.50
36292;DHT22;22327;51.208;6.418;2022-07-17T06:10:10;30.20;39.10
36292;DHT22;22327;51.208;6.418;2022-07-17T06:12:35;30.90;38.40
36292;DHT22;22327;51.208;6.418;2022-07-17T06:15:01;31.50;37.50
36292;DHT22;22327;51.208;6.418;2022-07-17T06:17:27;31.80;36.30
36292;DHT22;22327;51.208;6.418;2022-07-17T06:19:54;32.20;35.30
36292;DHT22;22327;51.208;6.418;2022-07-17T06:22:20;32.30;35.30
36292;DHT22;22327;51.208;6.418;2022-07-17T06:24:47;32.10;35.10
36292;DHT22;22327;51.208;6.418;2022-07-17T06:27:13;31.80;34.00
36292;DHT22;22327;51.208;6.418;2022-07-17T06:29:39;31.90;35.50
36292;DHT22;22327;51.208;6.418;2022-07-17T06:32:05;32.30;35.10
36292;DHT22;22327;51.208;6.418;2022-07-17T06:34:31;32.90;34.00
36292;DHT22;22327;51.208;6.418;2022-07-17T06:36:56;33.10;33.10
36292;DHT22;22327;51.208;6.418;2022-07-17T06:39:22;33.00;32.80
36292;DHT22;22327;51.208;6.418;2022-07-17T06:41:47;33.20;33.50
36292;DHT22;22327;51.208;6.418;2022-07-17T06:44:13;33.90;33.30
36292;DHT22;22327;51.208;6.418;2022-07-17T06:46:39;34.30;31.30
36292;DHT22;22327;51.208;6.418;2022-07-17T06:49:04;34.60;31.20
36292;DHT22;22327;51.208;6.418;2022-07-17T06:51:30;34.70;30.80
36292;DHT22;22327;51.208;6.418;2022-07-17T06:53:55;35.00;30.60
36292;DHT22;22327;51.208;6.418;2022-07-17T06:56:21;35.50;29.20
36292;DHT22;22327;51.208;6.418;2022-07-17T06:58:47;35.40;29.70
36292;DHT22;22327;51.208;6.418;2022-07-17T07:01:12;35.80;29.60
36292;DHT22;22327;51.208;6.418;2022-07-17T07:03:38;36.40;29.30
36292;DHT22;22327;51.208;6.418;2022-07-17T07:06:03;37.10;28.40
36292;DHT22;22327;51.208;6.418;2022-07-17T07:08:29;37.30;28.10
36292;DHT22;22327;51.208;6.418;2022-07-17T07:10:55;37.50;28.00
36292;DHT22;22327;51.208;6.418;2022-07-17T07:13:20;37.80;27.10
36292;DHT22;22327;51.208;6.418;2022-07-17T07:15:46;37.70;26.80
36292;DHT22;22327;51.208;6.418;2022-07-17T07:18:12;37.70;26.60
36292;DHT22;22327;51.208;6.418;2022-07-17T07:20:38;37.70;26.70
36292;DHT22;22327;51.208;6.418;2022-07-17T07:23:03;37.60;26.60
36292;DHT22;22327;51.208;6.418;2022-07-17T07:25:29;37.50;26.70
36292;DHT22;22327;51.208;6.418;2022-07-17T07:27:54;37.80;26.80
36292;DHT22;22327;51.208;6.418;2022-07-17T07:30:20;38.10;25.60
36292;DHT22;22327;51.208;6.418;2022-07-17T07:32:45;38.20;25.50
36292;DHT22;22327;51.208;6.418;2022-07-17T07:35:11;38.50;26.10
36292;DHT22;22327;51.208;6.418;2022-07-17T07:37:37;39.10;25.80
36292;DHT22;22327;51.208;6.418;2022-07-17T07:40:04;39.30;24.90
36292;DHT22;22327;51.208;6.418;2022-07-17T07:42:30;39.50;24.70
36292;DHT22;22327;51.208;6.418;2022-07-17T07:44:55;39.20;24.90
36292;DHT22;22327;51.208;6.418;2022-07-17T07:47:22;39.10;25.00
36292;DHT22;22327;51.208;6.418;2022-07-17T07:49:48;39.30;24.80
36292;DHT22;22327;51.208;6.418;2022-07-17T07:52:13;39.40;24.20
36292;DHT22;22327;51.208;6.418;2022-07-17T07:54:39;39.70;24.30
36292;DHT22;22327;51.208;6.418;2022-07-17T07:57:05;39.30;23.80
36292;DHT22;22327;51.208;6.418;2022-07-17T07:59:31;39.20;23.90
36292;DHT22;22327;51.208;6.418;2022-07-17T08:02:00;38.50;24.30
36292;DHT22;22327;51.208;6.418;2022-07-17T08:04:26;38.20;25.00
36292;DHT22;22327;51.208;6.418;2022-07-17T08:06:51;38.30;24.90
36292;DHT22;22327;51.208;6.418;2022-07-17T08:09:17;38.80;24.50
36292;DHT22;22327;51.208;6.418;2022-07-17T08:11:43;39.30;23.80
36292;DHT22;22327;51.208;6.418;2022-07-17T08:14:08;39.80;23.70
36292;DHT22;22327;51.208;6.418;2022-07-17T08:16:34;40.10;23.50
36292;DHT22;22327;51.208;6.418;2022-07-17T08:19:00;40.30;23.10
36292;DHT22;22327;51.208;6.418;2022-07-17T08:21:26;40.40;23.00
36292;DHT22;22327;51.208;6.418;2022-07-17T08:23:52;40.80;23.40
36292;DHT22;22327;51.208;6.418;2022-07-17T08:26:17;41.20;22.80
36292;DHT22;22327;51.208;6.418;2022-07-17T08:28:43;41.10;22.50
36292;DHT22;22327;51.208;6.418;2022-07-17T08:31:08;40.30;22.50
36292;DHT22;22327;51.208;6.418;2022-07-17T08:33:35;39.10;23.30
36292;DHT22;22327;51.208;6.418;2022-07-17T08:36:01;38.20;24.00
36292;DHT22;22327;51.208;6.418;2022-07-17T08:38:26;37.80;24.60
36292;DHT22;22327;51.208;6.418;2022-07-17T08:40:52;38.30;24.80
36292;DHT22;22327;51.208;6.418;2022-07-17T08:43:19;38.70;24.10
36292;DHT22;22327;51.208;6.418;2022-07-17T08:45:45;39.10;24.30
36292;DHT22;22327;51.208;6.418;2022-07-17T08:48:14;39.50;24.10
36292;DHT22;22327;51.208;6.418;2022-07-17T08:50:40;40.00;23.20
36292;DHT22;22327;51.208;6.418;2022-07-17T08:53:05;40.20;22.90
36292;DHT22;22327;51.208;6.418;2022-07-17T08:55:32;40.50;23.00
36292;DHT22;22327;51.208;6.418;2022-07-17T08:57:58;40.40;22.50
36292;DHT22;22327;51.208;6.418;2022-07-17T09:00:25;39.80;22.50
36292;DHT22;22327;51.208;6.418;2022-07-17T09:03:05;39.50;22.70
36292;DHT22;22327;51.208;6.418;2022-07-17T09:05:36;38.90;23.70
36292;DHT22;22327;51.208;6.418;2022-07-17T09:08:04;38.80;23.40
36292;DHT22;22327;51.208;6.418;2022-07-17T09:10:41;38.30;23.70
36292;DHT22;22327;51.208;6.418;2022-07-17T09:15:46;39.30;23.40
36292;DHT22;22327;51.208;6.418;2022-07-17T09:18:13;39.50;22.80
36292;DHT22;22327;51.208;6.418;2022-07-17T09:20:53;39.50;23.10
36292;DHT22;22327;51.208;6.418;2022-07-17T09:23:20;40.20;23.10
36292;DHT22;22327;51.208;6.418;2022-07-17T09:25:48;40.80;22.70
36292;DHT22;22327;51.208;6.418;2022-07-17T09:28:15;41.40;22.10
36292;DHT22;22327;51.208;6.418;2022-07-17T09:30:44;41.50;22.00
36292;DHT22;22327;51.208;6.418;2022-07-17T09:33:16;41.60;21.90
36292;DHT22;22327;51.208;6.418;2022-07-17T09:35:54;41.60;21.10
36292;DHT22;22327;51.208;6.418;2022-07-17T09:38:34;41.00;21.80
36292;DHT22;22327;51.208;6.418;2022-07-17T09:43:42;40.50;22.30
36292;DHT22;22327;51.208;6.418;2022-07-17T09:46:17;40.90;22.00
36292;DHT22;22327;51.208;6.418;2022-07-17T09:48:45;41.10;21.50
36292;DHT22;22327;51.208;6.418;2022-07-17T09:51:28;40.80;20.50
36292;DHT22;22327;51.208;6.418;2022-07-17T09:53:56;40.00;21.70
36292;DHT22;22327;51.208;6.418;2022-07-17T09:56:24;39.70;21.40
36292;DHT22;22327;51.208;6.418;2022-07-17T09:58:51;39.50;22.40
36292;DHT22;22327;51.208;6.418;2022-07-17T10:01:18;39.20;22.70
36292;DHT22;22327;51.208;6.418;2022-07-17T10:03:45;38.70;23.20
36292;DHT22;22327;51.208;6.418;2022-07-17T10:06:11;38.40;23.30
36292;DHT22;22327;51.208;6.418;2022-07-17T10:08:38;38.40;24.00
36292;DHT22;22327;51.208;6.418;2022-07-17T10:11:06;38.00;24.40
36292;DHT22;22327;51.208;6.418;2022-07-17T10:13:32;36.80;25.10
36292;DHT22;22327;51.208;6.418;2022-07-17T10:15:58;35.70;26.10
36292;DHT22;22327;51.208;6.418;2022-07-17T10:18:41;34.80;26.90
36292;DHT22;22327;51.208;6.418;2022-07-17T10:21:12;34.00;27.50
36292;DHT22;22327;51.208;6.418;2022-07-17T10:23:39;33.20;28.50
36292;DHT22;22327;51.208;6.418;2022-07-17T10:26:04;32.70;28.60
36292;DHT22;22327;51.208;6.418;2022-07-17T10:28:44;32.20;29.20
36292;DHT22;22327;51.208;6.418;2022-07-17T10:31:22;31.70;30.80
36292;DHT22;22327;51.208;6.418;2022-07-17T10:34:02;31.00;31.40
36292;DHT22;22327;51.208;6.418;2022-07-17T10:36:37;30.40;32.60
36292;DHT22;22327;51.208;6.418;2022-07-17T10:39:17;29.80;33.20
36292;DHT22;22327;51.208;6.418;2022-07-17T10:42:01;29.20;33.50
36292;DHT22;22327;51.208;6.418;2022-07-17T10:44:28;29.00;34.30
36292;DHT22;22327;51.208;6.418;2022-07-17T10:46:55;29.00;34.80
36292;DHT22;22327;51.208;6.418;2022-07-17T10:49:22;28.90;34.60
36292;DHT22;22327;51.208;6.418;2022-07-17T10:51:48;28.90;34.80
36292;DHT22;22327;51.208;6.418;2022-07-17T10:54:16;29.00;34.90
36292;DHT22;22327;51.208;6.418;2022-07-17T10:56:42;29.10;34.80
36292;DHT22;22327;51.208;6.418;2022-07-17T10:59:10;28.80;34.60
36292;DHT22;22327;51.208;6.418;2022-07-17T11:01:36;28.50;35.20
36292;DHT22;22327;51.208;6.418;2022-07-17T11:04:02;28.60;36.50
36292;DHT22;22327;51.208;6.418;2022-07-17T11:06:38;28.40;35.90
36292;DHT22;22327;51.208;6.418;2022-07-17T11:09:06;28.30;36.20
36292;DHT22;22327;51.208;6.418;2022-07-17T11:14:30;28.20;36.20
36292;DHT22;22327;51.208;6.418;2022-07-17T11:17:00;28.40;37.30
36292;DHT22;22327;51.208;6.418;2022-07-17T11:21:53;28.30;35.70
36292;DHT22;22327;51.208;6.418;2022-07-17T11:24:18;28.30;35.50
36292;DHT22;22327;51.208;6.418;2022-07-17T11:26:44;28.20;36.10
36292;DHT22;22327;51.208;6.418;2022-07-17T11:29:10;28.00;35.80
36292;DHT22;22327;51.208;6.418;2022-07-17T11:31:36;27.80;36.40
36292;DHT22;22327;51.208;6.418;2022-07-17T11:34:05;27.80;36.70
36292;DHT22;22327;51.208;6.418;2022-07-17T11:36:36;27.80;37.00
36292;DHT22;22327;51.208;6.418;2022-07-17T11:39:08;27.80;36.40
36292;DHT22;22327;51.208;6.418;2022-07-17T11:44:04;27.80;36.30
36292;DHT22;22327;51.208;6.418;2022-07-17T11:46:31;27.70;36.30
36292;DHT22;22327;51.208;6.418;2022-07-17T11:48:58;27.70;36.40
36292;DHT22;22327;51.208;6.418;2022-07-17T11:51:55;27.60;35.90
36292;DHT22;22327;51.208;6.418;2022-07-17T11:54:21;27.60;36.70
36292;DHT22;22327;51.208;6.418;2022-07-17T11:56:55;27.60;37.00
36292;DHT22;22327;51.208;6.418;2022-07-17T11:59:29;27.80;36.60
36292;DHT22;22327;51.208;6.418;2022-07-17T12:01:55;28.00;36.00
36292;DHT22;22327;51.208;6.418;2022-07-17T12:04:21;28.10;35.80
36292;DHT22;22327;51.208;6.418;2022-07-17T12:06:58;28.30;35.20
36292;DHT22;22327;51.208;6.418;2022-07-17T12:09:29;28.30;34.80
36292;DHT22;22327;51.208;6.418;2022-07-17T12:11:59;28.30;35.30
36292;DHT22;22327;51.208;6.418;2022-07-17T12:14:25;28.50;35.40
36292;DHT22;22327;51.208;6.418;2022-07-17T12:16:50;28.60;35.10
36292;DHT22;22327;51.208;6.418;2022-07-17T12:19:19;28.60;34.70
36292;DHT22;22327;51.208;6.418;2022-07-17T12:21:53;28.70;34.50
36292;DHT22;22327;51.208;6.418;2022-07-17T12:26:55;29.00;35.10
36292;DHT22;22327;51.208;6.418;2022-07-17T12:29:21;28.90;34.20
36292;DHT22;22327;51.208;6.418;2022-07-17T12:31:47;28.70;34.00
36292;DHT22;22327;51.208;6.418;2022-07-17T12:34:12;28.70;34.80
36292;DHT22;22327;51.208;6.418;2022-07-17T12:36:38;28.70;34.40
36292;DHT22;22327;51.208;6.418;2022-07-17T12:39:04;28.90;34.30
36292;DHT22;22327;51.208;6.418;2022-07-17T12:41:30;29.00;34.50
36292;DHT22;22327;51.208;6.418;2022-07-17T12:43:55;29.20;34.20
36292;DHT22;22327;51.208;6.418;2022-07-17T12:46:21;29.10;32.20
36292;DHT22;22327;51.208;6.418;2022-07-17T12:48:46;29.10;33.60
36292;DHT22;22327;51.208;6.418;2022-07-17T12:51:13;29.10;33.40
36292;DHT22;22327;51.208;6.418;2022-07-17T12:53:40;29.00;33.20
36292;DHT22;22327;51.208;6.418;2022-07-17T12:56:07;28.80;33.40
36292;DHT22;22327;51.208;6.418;2022-07-17T12:58:33;28.70;33.50
36292;DHT22;22327;51.208;6.418;2022-07-17T13:00:59;28.60;33.70
36292;DHT22;22327;51.208;6.418;2022-07-17T13:03:25;28.70;33.90
36292;DHT22;22327;51.208;6.418;2022-07-17T13:05:51;28.90;33.90
36292;DHT22;22327;51.208;6.418;2022-07-17T13:08:17;29.10;32.50
36292;DHT22;22327;51.208;6.418;2022-07-17T13:10:42;29.20;32.90
36292;DHT22;22327;51.208;6.418;2022-07-17T13:13:08;29.10;32.10
36292;DHT22;22327;51.208;6.418;2022-07-17T13:15:34;29.10;32.00
36292;DHT22;22327;51.208;6.418;2022-07-17T13:18:00;29.10;32.40
36292;DHT22;22327;51.208;6.418;2022-07-17T13:20:26;29.10;32.60
36292;DHT22;22327;51.208;6.418;2022-07-17T13:22:52;29.20;32.40
36292;DHT22;22327;51.208;6.418;2022-07-17T13:25:17;29.20;32.20
36292;DHT22;22327;51.208;6.418;2022-07-17T13:27:43;29.10;31.70
36292;DHT22;22327;51.208;6.418;2022-07-17T13:30:09;29.10;31.20
36292;DHT22;22327;51.208;6.418;2022-07-17T13:32:35;29.00;30.00
36292;DHT22;22327;51.208;6.418;2022-07-17T13:35:01;28.90;29.20
36292;DHT22;22327;51.208;6.418;2022-07-17T13:37:26;28.80;29.20
36292;DHT22;22327;51.208;6.418;2022-07-17T13:39:52;28.80;29.40
36292;DHT22;22327;51.208;6.418;2022-07-17T13:42:17;28.80;29.10
36292;DHT22;22327;51.208;6.418;2022-07-17T13:44:43;28.60;29.00
36292;DHT22;22327;51.208;6.418;2022-07-17T13:47:08;28.50;29.00
36292;DHT22;22327;51.208;6.418;2022-07-17T13:49:34;28.40;29.10
36292;DHT22;22327;51.208;6.418;2022-07-17T13:52:00;28.40;29.90
36292;DHT22;22327;51.208;6.418;2022-07-17T13:54:26;28.60;30.50
36292;DHT22;22327;51.208;6.418;2022-07-17T13:56:51;28.70;31.00
36292;DHT22;22327;51.208;6.418;2022-07-17T13:59:18;28.70;31.30
36292;DHT22;22327;51.208;6.418;2022-07-17T14:01:44;28.70;31.20
36292;DHT22;22327;51.208;6.418;2022-07-17T14:04:09;28.80;31.10
36292;DHT22;22327;51.208;6.418;2022-07-17T14:06:35;28.80;31.70
36292;DHT22;22327;51.208;6.418;2022-07-17T14:09:01;28.70;31.40
36292;DHT22;22327;51.208;6.418;2022-07-17T14:11:26;28.70;31.70
36292;DHT22;22327;51.208;6.418;2022-07-17T14:13:52;28.80;31.90
36292;DHT22;22327;51.208;6.418;2022-07-17T14:16:18;28.80;31.60
36292;DHT22;22327;51.208;6.418;2022-07-17T14:18:43;28.80;31.50
36292;DHT22;22327;51.208;6.418;2022-07-17T14:21:44;28.90;31.50
36292;DHT22;22327;51.208;6.418;2022-07-17T14:24:10;28.90;30.50
36292;DHT22;22327;51.208;6.418;2022-07-17T14:26:36;28.80;30.60
36292;DHT22;22327;51.208;6.418;2022-07-17T14:29:03;28.80;30.50
36292;DHT22;22327;51.208;6.418;2022-07-17T14:31:28;28.80;30.40
36292;DHT22;22327;51.208;6.418;2022-07-17T14:33:54;28.80;30.00
36292;DHT22;22327;51.208;6.418;2022-07-17T14:36:20;28.90;29.90
36292;DHT22;22327;51.208;6.418;2022-07-17T14:38:45;28.90;29.10
36292;DHT22;22327;51.208;6.418;2022-07-17T14:41:12;28.80;29.40
36292;DHT22;22327;51.208;6.418;2022-07-17T14:43:37;29.00;28.70
36292;DHT22;22327;51.208;6.418;2022-07-17T14:46:03;29.10;29.00
36292;DHT22;22327;51.208;6.418;2022-07-17T14:48:30;29.30;28.90
36292;DHT22;22327;51.208;6.418;2022-07-17T14:50:55;29.20;27.80
36292;DHT22;22327;51.208;6.418;2022-07-17T14:53:21;29.20;28.10
36292;DHT22;22327;51.208;6.418;2022-07-17T14:55:47;29.40;28.70
36292;DHT22;22327;51.208;6.418;2022-07-17T14:58:12;29.60;28.10
36292;DHT22;22327;51.208;6.418;2022-07-17T15:00:38;29.70;28.30
36292;DHT22;22327;51.208;6.418;2022-07-17T15:03:03;29.80;27.50
36292;DHT22;22327;51.208;6.418;2022-07-17T15:05:29;29.70;27.30
36292;DHT22;22327;51.208;6.418;2022-07-17T15:07:56;29.70;27.50
36292;DHT22;22327;51.208;6.418;2022-07-17T15:10:22;29.70;27.70
36292;DHT22;22327;51.208;6.418;2022-07-17T15:12:47;29.80;27.90
36292;DHT22;22327;51.208;6.418;2022-07-17T15:15:13;29.80;28.00
36292;DHT22;22327;51.208;6.418;2022-07-17T15:17:38;29.80;27.90
36292;DHT22;22327;51.208;6.418;2022-07-17T15:20:05;29.70;27.00
36292;DHT22;22327;51.208;6.418;2022-07-17T15:22:30;29.70;27.30
36292;DHT22;22327;51.208;6.418;2022-07-17T15:24:56;29.90;28.20
36292;DHT22;22327;51.208;6.418;2022-07-17T15:27:21;30.00;28.60
36292;DHT22;22327;51.208;6.418;2022-07-17T15:29:47;30.00;28.40
36292;DHT22;22327;51.208;6.418;2022-07-17T15:32:12;29.90;28.40
36292;DHT22;22327;51.208;6.418;2022-07-17T15:34:38;29.80;28.60
36292;DHT22;22327;51.208;6.418;2022-07-17T15:37:04;29.70;28.50
36292;DHT22;22327;51.208;6.418;2022-07-17T15:39:30;29.60;28.50
36292;DHT22;22327;51.208;6.418;2022-07-17T15:41:56;29.50;28.20